Forrest Airport
YFRT : now visible

Airfield :











YOU CAN JOIN US ON...

 
LOGIN :

Register | Disclaimer

   EN    FR    IT 

 









Legend :    VFR   Marginal VFR   IFR   Intensive IFR   Very Intensive IFR
Visi :
Ceiling :
>= 8 km
>= 3000ft
5 to 8 km
1000 to 3000 ft
1500m to 5 km
500 to 1000 ft
800 to 1500m
200 to 500 ft
< 800m
< 200 ft
Symbols :   Thunderstorms  Fog  Heavy snow  Heavy precipitations  Wind > 20 kt






- Airport Elevation : 511 ft
- IATA code : FOS


YFRT - Forrest

CURRENT METAR :
  • 301700Z AUTO 27007KT 9999 // BKN089 OVC110 14/11 Q1006

EXPIRED METARs :
  • 301630Z AUTO 28008KT 9999 // NCD 14/11 Q1006 RF00.0/000.0
  • 301600Z AUTO 30007KT 9999 // SCT083 SCT115 13/10 Q1006
  • 301530Z AUTO 29009KT 9999 // SCT087 14/11 Q1006 RF00.0/000.0
  • 301500Z AUTO 30008KT 9999 // OVC089 15/11 Q1006
  • 301430Z AUTO 27015KT 9999 // SCT078 BKN093 OVC120 16/11 Q1006
  • 301400Z AUTO 31017KT 9999 // SCT068 SCT077 BKN097 17/11 Q1006

TAF TAF YFRT
Valid from the 30 at 14:00 until the 31 at 02:00 UTC


301324Z 3014/3102 27012KT 9999 -SHRA BKN040
FM302000 26013KT 9999 -SHRA SCT030
FM310100 25018G28KT 9999 NSW SCT040 INTER 3016/3020 4000 SHRA BKN012
YMMM FIR / Oceania



MET'MAP, your aeronautical weather chart ! - Copyright ORBIFLY December 2007 - Disclaimer

ORBIFLY MET'MAP TEAM :

Programming & Development : Alexandra Zaïnal
Concept & original design : Baudouin d'Aumeries
Assistance for programming : Marc-Olivier Méhu
Technical & hardware support : Manuel Goepfert

Contact : metmap@orbifly.com




SOURCES & CREDITS :

   NOAA       Earth
Advisory